Terminal Aerodrome Forecast
Issued by NWS

Home | Current Version | Previous Version | Graphics & Text | Print | Product List | Glossary On
Versions: 1 2 3 4 5 6 7 8 9 10 11 12 13 14 15
000
FTUS41 KCLE 241700
TAFFDY
TAF
KFDY 241735Z 2418/2518 27012KT P6SM SCT250
     FM250100 10006KT P6SM SCT040 OVC120
     FM250600 08006KT P6SM VCSH OVC035=

USA.gov is the U.S. government's official web portal to all federal, state and local government web resources and services.